createdAt,value
2023-03-03T00:01:35.353Z,2.90
2023-03-03T00:04:02.382Z,3.00
2023-03-03T00:06:30.376Z,3.00
2023-03-03T00:08:57.386Z,2.90
2023-03-03T00:11:24.141Z,2.90
2023-03-03T00:13:57.511Z,2.90
2023-03-03T00:16:24.428Z,2.80
2023-03-03T00:18:54.200Z,2.80
2023-03-03T00:21:29.704Z,2.80
2023-03-03T00:24:12.043Z,2.80
2023-03-03T00:26:40.382Z,2.70
2023-03-03T00:29:30.635Z,2.70
2023-03-03T00:32:21.610Z,2.70
2023-03-03T00:34:49.294Z,2.60
2023-03-03T00:37:28.181Z,2.70
2023-03-03T00:40:09.823Z,2.70
2023-03-03T00:42:36.506Z,2.60
2023-03-03T00:45:39.209Z,2.60
2023-03-03T00:48:27.552Z,2.50
2023-03-03T00:51:33.107Z,2.40
2023-03-03T00:54:02.385Z,2.40
2023-03-03T00:56:31.594Z,2.40
2023-03-03T00:58:58.251Z,2.30
2023-03-03T01:01:25.569Z,2.30
2023-03-03T01:03:57.108Z,2.20
2023-03-03T01:06:24.051Z,2.20
2023-03-03T01:08:52.997Z,2.10
2023-03-03T01:11:28.619Z,2.10
2023-03-03T01:13:56.298Z,2.00
2023-03-03T01:16:23.170Z,2.00
2023-03-03T01:18:49.948Z,1.90
2023-03-03T01:21:16.590Z,1.90
2023-03-03T01:23:43.406Z,1.90
2023-03-03T01:26:10.635Z,1.90
2023-03-03T01:28:37.377Z,1.80
2023-03-03T01:31:05.278Z,1.80
2023-03-03T01:33:35.936Z,1.80
2023-03-03T01:36:03.974Z,1.80
2023-03-03T01:38:30.938Z,1.80
2023-03-03T01:40:59.293Z,1.80
2023-03-03T01:43:31.068Z,1.70
2023-03-03T01:46:00.700Z,1.70
2023-03-03T01:48:34.257Z,1.70
2023-03-03T01:51:06.372Z,1.70
2023-03-03T01:53:49.755Z,1.70
2023-03-03T01:56:16.488Z,1.60
2023-03-03T01:59:07.112Z,1.60
2023-03-03T02:01:36.762Z,1.60
2023-03-03T02:04:08.370Z,1.60
2023-03-03T02:06:39.938Z,1.50
2023-03-03T02:09:17.847Z,1.40
2023-03-03T02:11:47.360Z,1.40
2023-03-03T02:14:16.797Z,1.40
2023-03-03T02:16:43.578Z,1.40
2023-03-03T02:19:24.134Z,1.40
2023-03-03T02:21:52.087Z,1.40
2023-03-03T02:24:36.964Z,1.40
2023-03-03T02:27:03.811Z,1.40
2023-03-03T02:29:30.434Z,1.40
2023-03-03T02:31:57.282Z,1.40
2023-03-03T02:34:24.611Z,1.40
2023-03-03T02:36:51.684Z,1.40
2023-03-03T02:39:21.666Z,1.30
2023-03-03T02:41:51.898Z,1.30
2023-03-03T02:44:23.855Z,1.30
2023-03-03T02:46:52.343Z,1.40
2023-03-03T02:49:25.583Z,1.40
2023-03-03T02:51:52.955Z,1.40
2023-03-03T02:54:21.659Z,1.40
2023-03-03T02:56:48.792Z,1.40
2023-03-03T02:59:18.257Z,1.40
2023-03-03T03:01:46.170Z,1.40
2023-03-03T03:04:25.361Z,1.40
2023-03-03T03:06:53.414Z,1.50
2023-03-03T03:09:24.373Z,1.50
2023-03-03T03:11:51.354Z,1.50
2023-03-03T03:14:17.988Z,1.50
2023-03-03T03:16:44.951Z,1.40
2023-03-03T03:19:12.002Z,1.40
2023-03-03T03:21:41.066Z,1.40
2023-03-03T03:24:07.865Z,1.40
2023-03-03T03:26:34.508Z,1.30
2023-03-03T03:29:01.352Z,1.30
2023-03-03T03:31:30.653Z,1.30
2023-03-03T03:33:57.306Z,1.30
2023-03-03T03:36:27.011Z,1.30
2023-03-03T03:38:53.954Z,1.30
2023-03-03T03:41:20.657Z,1.30
2023-03-03T03:43:49.926Z,1.30
2023-03-03T03:46:16.698Z,1.30
2023-03-03T03:48:43.430Z,1.30
2023-03-03T03:51:12.046Z,1.30
2023-03-03T03:53:38.692Z,1.30
2023-03-03T03:56:08.107Z,1.30
2023-03-03T03:58:40.551Z,1.30
2023-03-03T04:01:10.028Z,1.30
2023-03-03T04:03:36.830Z,1.20
2023-03-03T04:06:03.619Z,1.20
2023-03-03T04:08:30.447Z,1.10
2023-03-03T04:10:57.093Z,1.10
2023-03-03T04:13:28.810Z,1.00
2023-03-03T04:15:55.532Z,1.00
2023-03-03T04:18:22.184Z,1.00
2023-03-03T04:20:49.973Z,0.90
2023-03-03T04:23:19.606Z,0.90
2023-03-03T04:25:48.076Z,0.80
2023-03-03T04:28:15.710Z,0.80
2023-03-03T04:30:42.730Z,0.70
2023-03-03T04:33:14.761Z,0.70
2023-03-03T04:35:44.067Z,0.60
2023-03-03T04:38:10.856Z,0.60
2023-03-03T04:40:37.636Z,0.60
2023-03-03T04:43:04.350Z,0.60
2023-03-03T04:45:31.002Z,0.60
2023-03-03T04:47:57.632Z,0.60
2023-03-03T04:50:24.638Z,0.60
2023-03-03T04:52:51.313Z,0.60
2023-03-03T04:55:18.009Z,0.50
2023-03-03T04:57:44.717Z,0.50
2023-03-03T05:00:15.763Z,0.50
2023-03-03T05:02:42.886Z,0.50
2023-03-03T05:05:10.658Z,0.50
2023-03-03T05:07:43.211Z,0.50
2023-03-03T05:10:10.899Z,0.50
2023-03-03T05:12:37.862Z,0.50
2023-03-03T05:15:09.966Z,0.40
2023-03-03T05:17:37.186Z,0.40
2023-03-03T05:20:05.829Z,0.40
2023-03-03T05:22:34.831Z,0.40
2023-03-03T05:25:04.265Z,0.40
2023-03-03T05:27:31.369Z,0.40
2023-03-03T05:30:00.241Z,0.40
2023-03-03T05:32:26.968Z,0.40
2023-03-03T05:34:53.998Z,0.40
2023-03-03T05:37:20.665Z,0.40
2023-03-03T05:39:47.446Z,0.40
2023-03-03T05:42:17.733Z,0.40
2023-03-03T05:44:44.417Z,0.40
2023-03-03T05:47:11.339Z,0.40
2023-03-03T05:49:38.071Z,0.40
2023-03-03T05:52:08.936Z,0.30
2023-03-03T05:54:40.239Z,0.40
2023-03-03T05:57:09.416Z,0.40
2023-03-03T05:59:36.060Z,0.30
2023-03-03T06:02:03.050Z,0.30
2023-03-03T06:04:29.742Z,0.40
2023-03-03T06:06:58.843Z,0.40
2023-03-03T06:09:26.284Z,0.40
2023-03-03T06:11:53.510Z,0.40
2023-03-03T06:14:24.812Z,0.40
2023-03-03T06:16:55.835Z,0.40
2023-03-03T06:19:22.606Z,0.50
2023-03-03T06:21:51.804Z,0.50
2023-03-03T06:24:18.461Z,0.50
2023-03-03T06:26:45.129Z,0.50
2023-03-03T06:29:15.706Z,0.50
2023-03-03T06:31:45.689Z,0.40
2023-03-03T06:34:12.420Z,0.40
2023-03-03T06:36:43.650Z,0.40
2023-03-03T06:39:10.819Z,0.40
2023-03-03T06:41:37.961Z,0.40
2023-03-03T06:44:04.837Z,0.40
2023-03-03T06:46:31.586Z,0.40
2023-03-03T06:48:58.232Z,0.40
2023-03-03T06:51:30.845Z,0.40
2023-03-03T06:53:59.930Z,0.40
2023-03-03T06:56:29.806Z,0.50
2023-03-03T06:58:58.936Z,0.50
2023-03-03T07:01:25.964Z,0.50
2023-03-03T07:03:52.734Z,0.60
2023-03-03T07:06:25.455Z,0.60
2023-03-03T07:08:55.401Z,0.70
2023-03-03T07:11:23.637Z,0.80
2023-03-03T07:13:52.254Z,0.80
2023-03-03T07:16:26.652Z,0.90
2023-03-03T07:19:05.361Z,1.00
2023-03-03T07:21:36.728Z,1.10
2023-03-03T07:24:26.851Z,1.10
2023-03-03T07:27:18.366Z,1.20
2023-03-03T07:29:48.604Z,1.40
2023-03-03T07:32:37.872Z,1.50
2023-03-03T07:35:30.640Z,1.60
2023-03-03T07:37:57.763Z,1.70
2023-03-03T07:40:38.878Z,1.80
2023-03-03T07:43:35.606Z,1.90
2023-03-03T07:46:17.311Z,2.00
2023-03-03T07:48:47.135Z,2.10
2023-03-03T07:51:29.965Z,2.30
2023-03-03T07:54:28.399Z,2.40
2023-03-03T07:57:08.957Z,2.60
2023-03-03T07:59:36.989Z,2.90
2023-03-03T08:02:23.857Z,3.10
2023-03-03T08:04:52.543Z,3.30
2023-03-03T08:07:23.617Z,3.60
2023-03-03T08:09:59.086Z,3.80
2023-03-03T08:12:47.275Z,3.90
2023-03-03T08:15:25.371Z,4.20
2023-03-03T08:17:54.997Z,4.50
2023-03-03T08:20:48.255Z,4.70
2023-03-03T08:23:17.167Z,4.90
2023-03-03T08:25:44.562Z,5.00
2023-03-03T08:28:12.589Z,5.20
2023-03-03T08:30:39.416Z,5.40
2023-03-03T08:33:06.454Z,5.60
2023-03-03T08:35:33.233Z,5.80
2023-03-03T08:38:00.141Z,6.00
2023-03-03T08:40:26.933Z,6.20
2023-03-03T08:42:54.467Z,6.50
2023-03-03T08:45:21.661Z,6.70
2023-03-03T08:47:50.982Z,6.90
2023-03-03T08:50:18.202Z,7.00
2023-03-03T08:52:45.257Z,7.10
2023-03-03T08:55:12.695Z,7.30
2023-03-03T08:57:39.651Z,7.40
2023-03-03T09:00:09.243Z,7.60
2023-03-03T09:02:36.020Z,7.80
2023-03-03T09:05:03.061Z,7.80
2023-03-03T09:07:29.936Z,7.90
2023-03-03T09:09:59.382Z,8.10
2023-03-03T09:12:36.553Z,8.30
2023-03-03T09:15:29.160Z,8.40
2023-03-03T09:18:20.158Z,8.60
2023-03-03T09:20:52.662Z,8.70
2023-03-03T09:23:47.247Z,8.70
2023-03-03T09:26:23.170Z,8.80
2023-03-03T09:28:50.381Z,9.00
2023-03-03T09:31:43.723Z,9.10
2023-03-03T09:34:38.537Z,9.20
2023-03-03T09:37:44.469Z,9.50
2023-03-03T09:40:55.835Z,9.60
2023-03-03T09:43:30.734Z,9.80
2023-03-03T09:46:26.440Z,9.90
2023-03-03T09:49:17.048Z,10.10
2023-03-03T09:51:58.120Z,10.40
2023-03-03T09:54:55.913Z,10.60
2023-03-03T09:57:31.926Z,10.90
2023-03-03T10:00:27.804Z,11.10
2023-03-03T10:03:05.740Z,11.30
2023-03-03T10:06:05.537Z,11.30
2023-03-03T10:09:00.014Z,11.40
2023-03-03T10:11:50.115Z,11.60
2023-03-03T10:14:54.669Z,11.80
2023-03-03T10:17:27.359Z,12.20
2023-03-03T10:20:13.339Z,12.90
2023-03-03T10:22:53.574Z,13.60
2023-03-03T10:25:50.768Z,14.40
2023-03-03T10:28:30.208Z,15.20
2023-03-03T10:31:28.479Z,16.00
2023-03-03T10:34:17.441Z,16.50
2023-03-03T10:37:02.910Z,17.20
2023-03-03T10:39:35.844Z,17.60
2023-03-03T10:42:37.682Z,17.90
2023-03-03T10:45:16.502Z,18.10
2023-03-03T10:48:04.423Z,18.20
2023-03-03T10:50:53.131Z,18.50
2023-03-03T10:53:34.918Z,18.80
2023-03-03T10:56:27.703Z,18.90
2023-03-03T10:58:58.122Z,19.00
2023-03-03T11:01:45.175Z,19.10
2023-03-03T11:04:25.238Z,19.20
2023-03-03T11:07:01.141Z,19.30
2023-03-03T11:09:42.805Z,19.50
2023-03-03T11:12:41.057Z,19.70
2023-03-03T11:15:33.427Z,19.80
2023-03-03T11:18:28.603Z,19.90
2023-03-03T11:21:19.821Z,20.00
2023-03-03T11:23:55.772Z,20.10
2023-03-03T11:26:54.716Z,20.20
2023-03-03T11:29:38.258Z,20.50
2023-03-03T11:32:16.728Z,20.70
2023-03-03T11:35:12.976Z,21.00
2023-03-03T11:37:39.690Z,21.30
2023-03-03T11:40:24.588Z,21.30
2023-03-03T11:43:01.988Z,21.30
2023-03-03T11:45:43.761Z,21.50
2023-03-03T11:48:30.618Z,21.70
2023-03-03T11:51:13.520Z,21.80
2023-03-03T11:54:05.613Z,22.10
2023-03-03T11:56:46.823Z,22.10
2023-03-03T11:59:47.376Z,22.20
2023-03-03T12:02:14.018Z,21.90
2023-03-03T12:04:55.856Z,21.70
2023-03-03T12:07:48.071Z,21.60
2023-03-03T12:10:36.094Z,21.50
2023-03-03T12:13:07.394Z,21.90
2023-03-03T12:15:49.861Z,22.30
2023-03-03T12:18:53.717Z,22.30
2023-03-03T12:21:50.370Z,22.50
2023-03-03T12:24:58.015Z,22.60
2023-03-03T12:27:32.600Z,22.60
2023-03-03T12:30:06.291Z,22.80
2023-03-03T12:32:56.674Z,23.00
2023-03-03T12:35:29.394Z,23.10
2023-03-03T12:38:02.131Z,23.00
2023-03-03T12:40:35.081Z,23.10
2023-03-03T12:43:19.891Z,23.10
2023-03-03T12:45:53.612Z,22.80
2023-03-03T12:48:35.501Z,22.70
2023-03-03T12:51:09.568Z,22.70
2023-03-03T12:53:57.391Z,22.70
2023-03-03T12:56:42.784Z,22.80
2023-03-03T12:59:26.553Z,22.60
2023-03-03T13:02:25.538Z,22.70
2023-03-03T13:05:07.125Z,22.70
2023-03-03T13:07:46.118Z,22.60
2023-03-03T13:10:42.175Z,22.60
2023-03-03T13:13:27.036Z,22.50
2023-03-03T13:16:01.090Z,22.60
2023-03-03T13:19:09.644Z,22.40
2023-03-03T13:21:54.863Z,22.30
2023-03-03T13:24:34.651Z,22.30
2023-03-03T13:27:12.668Z,22.20
2023-03-03T13:29:43.359Z,22.30
2023-03-03T13:32:21.526Z,22.40
2023-03-03T13:35:05.439Z,22.50
2023-03-03T13:37:45.452Z,22.70
2023-03-03T13:40:41.685Z,22.80
2023-03-03T13:43:31.978Z,22.70
2023-03-03T13:46:24.696Z,22.90
2023-03-03T13:49:06.575Z,22.80
2023-03-03T13:51:45.154Z,22.90
2023-03-03T13:54:39.902Z,22.90
2023-03-03T13:57:20.350Z,23.00
2023-03-03T13:59:47.036Z,23.10
2023-03-03T14:02:43.587Z,23.20
2023-03-03T14:05:24.772Z,23.10
2023-03-03T14:08:19.994Z,23.10
2023-03-03T14:11:17.932Z,22.80
2023-03-03T14:13:50.854Z,23.00
2023-03-03T14:16:27.863Z,23.10
2023-03-03T14:19:03.338Z,23.10
2023-03-03T14:22:04.028Z,22.70
2023-03-03T14:24:31.001Z,22.50
2023-03-03T14:26:59.707Z,22.50
2023-03-03T14:29:29.092Z,22.50
2023-03-03T14:32:02.254Z,22.60
2023-03-03T14:34:41.533Z,22.80
2023-03-03T14:37:26.128Z,22.80
2023-03-03T14:40:20.948Z,22.50
2023-03-03T14:42:54.798Z,22.40
2023-03-03T14:45:33.597Z,22.10
2023-03-03T14:48:27.132Z,21.90
2023-03-03T14:50:59.163Z,21.70
2023-03-03T14:53:38.115Z,21.10
2023-03-03T14:56:25.894Z,20.80
2023-03-03T14:59:17.741Z,20.30
2023-03-03T15:01:44.711Z,20.00
2023-03-03T15:04:25.797Z,19.70
2023-03-03T15:06:54.744Z,19.30
2023-03-03T15:09:35.913Z,18.90
2023-03-03T15:12:18.396Z,18.70
2023-03-03T15:14:50.330Z,18.70
2023-03-03T15:17:26.549Z,19.20
2023-03-03T15:20:35.944Z,19.60
2023-03-03T15:23:33.504Z,19.60
2023-03-03T15:26:31.340Z,19.20
2023-03-03T15:29:32.141Z,18.80
2023-03-03T15:32:21.921Z,18.30
2023-03-03T15:35:10.479Z,18.00
2023-03-03T15:38:00.575Z,17.80
2023-03-03T15:40:30.538Z,17.50
2023-03-03T15:43:12.481Z,17.20
2023-03-03T15:45:46.240Z,17.00
2023-03-03T15:48:31.130Z,16.80
2023-03-03T15:51:00.843Z,16.70
2023-03-03T15:53:56.485Z,16.60
2023-03-03T15:56:43.458Z,16.50
2023-03-03T15:59:27.601Z,16.40
2023-03-03T16:02:09.518Z,16.30
2023-03-03T16:04:45.029Z,16.30
2023-03-03T16:07:23.900Z,16.30
2023-03-03T16:10:00.118Z,16.30
2023-03-03T16:12:48.636Z,16.50
2023-03-03T16:15:18.125Z,16.70
2023-03-03T16:18:26.368Z,16.80
2023-03-03T16:21:17.761Z,16.80
2023-03-03T16:23:49.399Z,17.10
2023-03-03T16:26:46.833Z,17.30
2023-03-03T16:29:31.641Z,17.50
2023-03-03T16:32:17.908Z,17.60
2023-03-03T16:34:54.689Z,17.50
2023-03-03T16:37:39.712Z,17.40
2023-03-03T16:40:26.090Z,17.20
2023-03-03T16:43:22.402Z,16.80
2023-03-03T16:45:52.186Z,16.20
2023-03-03T16:48:27.948Z,15.60
2023-03-03T16:51:28.691Z,14.90
2023-03-03T16:54:38.934Z,14.20
2023-03-03T16:57:27.712Z,13.50
2023-03-03T17:00:08.247Z,13.00
2023-03-03T17:03:11.391Z,12.50
2023-03-03T17:05:57.862Z,12.10
2023-03-03T17:08:50.191Z,11.80
2023-03-03T17:11:38.760Z,11.60
2023-03-03T17:14:22.860Z,11.20
2023-03-03T17:17:05.938Z,11.00
2023-03-03T17:20:00.641Z,10.80
2023-03-03T17:23:08.620Z,10.60
2023-03-03T17:25:45.496Z,10.40
2023-03-03T17:28:44.469Z,10.30
2023-03-03T17:31:43.413Z,10.20
2023-03-03T17:34:19.693Z,10.00
2023-03-03T17:37:03.452Z,9.90
2023-03-03T17:39:50.349Z,9.80
2023-03-03T17:42:20.046Z,9.70
2023-03-03T17:45:00.334Z,9.50
2023-03-03T17:47:42.288Z,9.50
2023-03-03T17:50:28.706Z,9.40
2023-03-03T17:53:04.346Z,9.30
2023-03-03T17:55:54.903Z,9.20
2023-03-03T17:58:47.104Z,9.10
2023-03-03T18:01:37.368Z,9.00
2023-03-03T18:04:15.846Z,8.90
2023-03-03T18:07:07.737Z,8.80
2023-03-03T18:10:01.971Z,8.70
2023-03-03T18:13:05.197Z,8.60
2023-03-03T18:15:47.371Z,8.50
2023-03-03T18:18:52.656Z,8.40
2023-03-03T18:21:28.408Z,8.30
2023-03-03T18:24:33.416Z,8.30
2023-03-03T18:27:25.401Z,8.10
2023-03-03T18:30:20.595Z,8.10
2023-03-03T18:32:56.220Z,8.10
2023-03-03T18:35:45.588Z,8.00
2023-03-03T18:38:18.026Z,7.90
2023-03-03T18:41:00.143Z,7.90
2023-03-03T18:43:45.265Z,7.70
2023-03-03T18:46:24.144Z,7.60
2023-03-03T18:48:56.736Z,7.50
2023-03-03T18:51:38.525Z,7.40
2023-03-03T18:54:17.274Z,7.30
2023-03-03T18:56:49.714Z,7.20
2023-03-03T18:59:41.072Z,7.20
2023-03-03T19:02:19.710Z,7.20
2023-03-03T19:05:05.629Z,7.20
2023-03-03T19:07:41.495Z,7.20
2023-03-03T19:10:20.484Z,7.20
2023-03-03T19:12:57.842Z,7.20
2023-03-03T19:15:31.046Z,7.20
2023-03-03T19:18:25.579Z,7.20
2023-03-03T19:21:04.244Z,7.10
2023-03-03T19:24:01.900Z,7.10
2023-03-03T19:26:34.684Z,7.00
2023-03-03T19:29:55.876Z,7.00
2023-03-03T19:32:48.549Z,6.90
2023-03-03T19:35:21.361Z,6.90
2023-03-03T19:38:06.281Z,6.90
2023-03-03T19:41:00.992Z,6.80
2023-03-03T19:43:53.903Z,6.80
2023-03-03T19:46:23.587Z,6.70
2023-03-03T19:49:16.507Z,6.70
2023-03-03T19:52:11.642Z,6.70
2023-03-03T19:55:07.663Z,6.60
2023-03-03T19:57:54.451Z,6.60
2023-03-03T20:00:36.440Z,6.50
2023-03-03T20:03:44.671Z,6.40
2023-03-03T20:06:30.990Z,6.20
2023-03-03T20:09:18.749Z,6.10
2023-03-03T20:12:15.305Z,6.10
2023-03-03T20:14:44.224Z,6.00
2023-03-03T20:17:30.612Z,6.00
2023-03-03T20:20:26.371Z,6.00
2023-03-03T20:23:29.188Z,6.00
2023-03-03T20:26:07.884Z,5.90
2023-03-03T20:28:49.666Z,5.80
2023-03-03T20:31:39.159Z,5.80
2023-03-03T20:34:10.703Z,5.80
2023-03-03T20:36:56.092Z,5.80
2023-03-03T20:39:57.105Z,5.80
2023-03-03T20:42:45.504Z,5.80
2023-03-03T20:45:33.315Z,5.80
2023-03-03T20:48:28.064Z,5.80
2023-03-03T20:51:07.133Z,5.80
2023-03-03T20:54:02.412Z,5.80
2023-03-03T20:56:35.023Z,5.80
2023-03-03T20:59:20.806Z,5.80
2023-03-03T21:02:01.037Z,5.70
2023-03-03T21:04:31.945Z,5.70
2023-03-03T21:07:03.304Z,5.70
2023-03-03T21:09:36.700Z,5.60
2023-03-03T21:12:31.190Z,5.70
2023-03-03T21:15:01.650Z,5.60
2023-03-03T21:17:30.177Z,5.60
2023-03-03T21:20:25.338Z,5.60
2023-03-03T21:22:52.676Z,5.60
2023-03-03T21:25:41.617Z,5.50
2023-03-03T21:28:19.273Z,5.50
2023-03-03T21:31:09.457Z,5.50
2023-03-03T21:33:51.205Z,5.50
2023-03-03T21:36:40.928Z,5.40
2023-03-03T21:39:33.771Z,5.40
2023-03-03T21:42:05.115Z,5.30
2023-03-03T21:44:34.920Z,5.30
2023-03-03T21:47:02.188Z,5.30
2023-03-03T21:49:29.030Z,5.30
2023-03-03T21:51:56.734Z,5.20
2023-03-03T21:54:24.282Z,5.20
2023-03-03T21:56:53.940Z,5.20
2023-03-03T21:59:20.797Z,5.20
2023-03-03T22:01:49.802Z,5.10
2023-03-03T22:04:19.694Z,5.10
2023-03-03T22:06:46.433Z,5.10
2023-03-03T22:09:13.481Z,5.10
2023-03-03T22:11:42.213Z,5.10
2023-03-03T22:14:09.028Z,5.00
2023-03-03T22:16:35.733Z,5.00
2023-03-03T22:19:03.095Z,5.00
2023-03-03T22:21:31.112Z,5.00
2023-03-03T22:23:58.339Z,5.00
2023-03-03T22:26:25.184Z,4.90
2023-03-03T22:28:51.905Z,4.90
2023-03-03T22:31:21.193Z,4.80
2023-03-03T22:33:50.476Z,4.80
2023-03-03T22:36:19.066Z,4.70
2023-03-03T22:38:47.456Z,4.70
2023-03-03T22:41:14.781Z,4.70
2023-03-03T22:43:42.107Z,4.60
2023-03-03T22:46:09.606Z,4.60
2023-03-03T22:48:37.539Z,4.60
2023-03-03T22:51:04.798Z,4.60
2023-03-03T22:53:31.449Z,4.60
2023-03-03T22:56:00.624Z,4.50
2023-03-03T22:58:27.453Z,4.50
2023-03-03T23:00:54.459Z,4.40
2023-03-03T23:03:21.623Z,4.40
2023-03-03T23:05:51.965Z,4.30
2023-03-03T23:08:20.283Z,4.30
2023-03-03T23:10:56.693Z,4.20
2023-03-03T23:13:25.118Z,4.20
2023-03-03T23:15:51.898Z,4.20
2023-03-03T23:18:20.844Z,4.20
2023-03-03T23:20:47.547Z,4.20
2023-03-03T23:23:14.246Z,4.10
2023-03-03T23:25:40.969Z,4.10
2023-03-03T23:28:10.183Z,4.10
2023-03-03T23:30:36.899Z,4.10
2023-03-03T23:33:03.580Z,4.00
2023-03-03T23:35:30.573Z,4.00
2023-03-03T23:37:57.344Z,4.00
2023-03-03T23:40:24.234Z,4.10
2023-03-03T23:42:51.042Z,4.00
2023-03-03T23:45:17.929Z,4.00
2023-03-03T23:47:44.779Z,4.00
2023-03-03T23:50:12.545Z,4.00
2023-03-03T23:52:41.797Z,4.00
2023-03-03T23:55:09.532Z,3.90
2023-03-03T23:57:36.191Z,3.90
